createdAt,value
2023-05-11T00:01:08.404Z,100121.25
2023-05-11T00:03:36.718Z,100142.06
2023-05-11T00:06:04.947Z,100140.97
2023-05-11T00:08:32.867Z,100150.00
2023-05-11T00:11:01.753Z,100141.47
2023-05-11T00:13:30.165Z,100147.81
2023-05-11T00:15:58.644Z,100152.44
2023-05-11T00:18:27.978Z,100155.59
2023-05-11T00:20:56.704Z,100151.50
2023-05-11T00:23:24.674Z,100158.22
2023-05-11T00:25:52.508Z,100157.13
2023-05-11T00:28:20.534Z,100160.06
2023-05-11T00:30:48.463Z,100150.25
2023-05-11T00:33:16.328Z,100151.78
2023-05-11T00:35:45.611Z,100166.69
2023-05-11T00:38:13.456Z,100160.19
2023-05-11T00:40:41.441Z,100165.88
2023-05-11T00:43:09.404Z,100170.69
2023-05-11T00:45:37.537Z,100159.91
2023-05-11T00:48:05.801Z,100165.91
2023-05-11T00:50:33.699Z,100159.41
2023-05-11T00:53:03.109Z,100166.72
2023-05-11T00:55:31.802Z,100165.09
2023-05-11T00:58:00.646Z,100168.00
2023-05-11T01:00:28.610Z,100167.47
2023-05-11T01:02:57.052Z,100168.50
2023-05-11T01:05:31.302Z,100167.16
2023-05-11T01:08:06.649Z,100153.97
2023-05-11T01:10:43.293Z,100162.16
2023-05-11T01:13:18.705Z,100153.88
2023-05-11T01:15:51.846Z,100165.41
2023-05-11T01:18:26.295Z,100132.25
2023-05-11T01:20:58.692Z,100177.22
2023-05-11T01:23:46.224Z,100171.06
2023-05-11T01:26:35.084Z,100177.38
2023-05-11T01:29:36.475Z,100180.56
2023-05-11T01:32:09.407Z,100180.56
2023-05-11T01:34:41.787Z,100167.13
2023-05-11T01:37:13.932Z,100176.84
2023-05-11T01:39:47.237Z,100169.47
2023-05-11T01:42:17.001Z,100180.56
2023-05-11T01:44:51.569Z,100177.19
2023-05-11T01:47:22.637Z,100172.00
2023-05-11T01:49:53.115Z,100172.16
2023-05-11T01:52:22.469Z,100168.81
2023-05-11T01:54:52.973Z,100174.03
2023-05-11T01:57:22.884Z,100170.28
2023-05-11T01:59:52.963Z,100174.69
2023-05-11T02:02:22.949Z,100172.28
2023-05-11T02:04:52.538Z,100176.28
2023-05-11T02:07:21.793Z,100172.66
2023-05-11T02:09:51.063Z,100168.41
2023-05-11T02:12:20.431Z,100154.75
2023-05-11T02:14:49.878Z,100168.38
2023-05-11T02:17:20.151Z,100168.94
2023-05-11T02:19:50.546Z,100168.38
2023-05-11T02:22:20.716Z,100173.16
2023-05-11T02:24:49.639Z,100174.00
2023-05-11T02:27:17.615Z,100170.81
2023-05-11T02:29:46.512Z,100168.91
2023-05-11T02:32:18.367Z,100170.47
2023-05-11T02:34:55.520Z,100171.88
2023-05-11T02:37:26.736Z,100176.81
2023-05-11T02:40:00.526Z,100173.56
2023-05-11T02:42:31.093Z,100171.16
2023-05-11T02:45:03.399Z,100139.88
2023-05-11T02:47:37.137Z,100146.41
2023-05-11T02:50:09.355Z,100168.91
2023-05-11T02:52:42.466Z,100180.94
2023-05-11T02:55:12.025Z,100173.84
2023-05-11T02:57:40.252Z,100169.97
2023-05-11T03:00:10.053Z,100187.63
2023-05-11T03:02:38.076Z,100178.50
2023-05-11T03:05:08.288Z,100180.53
2023-05-11T03:07:36.562Z,100184.28
2023-05-11T03:10:05.239Z,100186.84
2023-05-11T03:12:34.653Z,100187.00
2023-05-11T03:15:04.159Z,100186.94
2023-05-11T03:17:32.563Z,100189.53
2023-05-11T03:20:03.751Z,100186.13
2023-05-11T03:22:33.733Z,100177.50
2023-05-11T03:25:03.871Z,100179.56
2023-05-11T03:27:34.281Z,100190.00
2023-05-11T03:30:04.211Z,100187.47
2023-05-11T03:32:32.092Z,100193.34
2023-05-11T03:35:00.061Z,100189.06
2023-05-11T03:37:30.913Z,100193.16
2023-05-11T03:40:02.194Z,100208.69
2023-05-11T03:42:32.090Z,100205.06
2023-05-11T03:45:01.422Z,100200.38
2023-05-11T03:47:30.839Z,100195.69
2023-05-11T03:50:00.034Z,100203.09
2023-05-11T03:52:28.371Z,100198.03
2023-05-11T03:54:56.385Z,100202.63
2023-05-11T03:57:28.005Z,100196.69
2023-05-11T03:59:56.057Z,100196.34
2023-05-11T04:02:24.556Z,100195.69
2023-05-11T04:04:53.452Z,100200.63
2023-05-11T04:07:21.676Z,100205.44
2023-05-11T04:09:49.585Z,100170.19
2023-05-11T04:12:17.566Z,100199.28
2023-05-11T04:14:46.785Z,100203.84
2023-05-11T04:17:14.603Z,100201.34
2023-05-11T04:19:42.752Z,100213.13
2023-05-11T04:22:12.258Z,100212.63
2023-05-11T04:24:40.393Z,100207.41
2023-05-11T04:27:08.221Z,100210.59
2023-05-11T04:29:36.247Z,100215.94
2023-05-11T04:32:06.054Z,100204.63
2023-05-11T04:34:33.989Z,100207.41
2023-05-11T04:37:07.185Z,100210.25
2023-05-11T04:39:35.308Z,100210.47
2023-05-11T04:42:03.309Z,100218.38
2023-05-11T04:44:31.188Z,100209.72
2023-05-11T04:46:59.207Z,100221.28
2023-05-11T04:49:28.527Z,100210.44
2023-05-11T04:51:57.040Z,100154.19
2023-05-11T04:54:24.974Z,100208.56
2023-05-11T04:56:52.915Z,100206.06
2023-05-11T04:59:20.925Z,100211.81
2023-05-11T05:01:48.813Z,100205.56
2023-05-11T05:04:16.958Z,100215.34
2023-05-11T05:06:46.864Z,100219.31
2023-05-11T05:09:14.709Z,100217.75
2023-05-11T05:11:42.628Z,100214.63
2023-05-11T05:14:10.702Z,100221.97
2023-05-11T05:16:38.687Z,100223.09
2023-05-11T05:19:06.722Z,100213.56
2023-05-11T05:21:35.898Z,100217.34
2023-05-11T05:24:06.916Z,100222.56
2023-05-11T05:26:34.961Z,100227.06
2023-05-11T05:29:02.888Z,100210.13
2023-05-11T05:31:31.198Z,100221.03
2023-05-11T05:33:59.114Z,100220.06
2023-05-11T05:36:27.011Z,100223.22
2023-05-11T05:38:54.874Z,100228.75
2023-05-11T05:41:24.176Z,100230.72
2023-05-11T05:43:52.060Z,100236.56
2023-05-11T05:46:19.964Z,100232.81
2023-05-11T05:48:47.939Z,100236.94
2023-05-11T05:51:16.489Z,100231.78
2023-05-11T05:53:44.418Z,100243.91
2023-05-11T05:56:12.364Z,100244.69
2023-05-11T05:58:41.642Z,100243.91
2023-05-11T06:01:09.960Z,100248.59
2023-05-11T06:03:38.705Z,100252.28
2023-05-11T06:06:07.231Z,100254.44
2023-05-11T06:08:35.170Z,100242.97
2023-05-11T06:11:03.119Z,100245.66
2023-05-11T06:13:31.016Z,100249.13
2023-05-11T06:16:00.350Z,100247.34
2023-05-11T06:18:28.333Z,100252.16
2023-05-11T06:20:56.351Z,100237.28
2023-05-11T06:23:24.312Z,100249.34
2023-05-11T06:25:52.248Z,100251.25
2023-05-11T06:28:20.113Z,100250.81
2023-05-11T06:30:48.151Z,100245.41
2023-05-11T06:33:17.542Z,100250.38
2023-05-11T06:35:45.602Z,100243.63
2023-05-11T06:38:13.497Z,100233.09
2023-05-11T06:40:41.466Z,100242.09
2023-05-11T06:43:09.467Z,100242.22
2023-05-11T06:45:37.612Z,100245.13
2023-05-11T06:48:05.933Z,100231.41
2023-05-11T06:50:35.314Z,100235.94
2023-05-11T06:53:03.233Z,100242.69
2023-05-11T06:55:31.191Z,100242.91
2023-05-11T06:57:59.075Z,100246.53
2023-05-11T07:00:27.203Z,100247.50
2023-05-11T07:02:55.285Z,100248.88
2023-05-11T07:05:23.805Z,100245.19
2023-05-11T07:07:53.101Z,100237.16
2023-05-11T07:10:21.260Z,100230.00
2023-05-11T07:12:49.402Z,100233.13
2023-05-11T07:15:17.395Z,100224.91
2023-05-11T07:17:47.797Z,100213.66
2023-05-11T07:20:16.369Z,100213.56
2023-05-11T07:22:44.504Z,100221.34
2023-05-11T07:25:13.831Z,100224.28
2023-05-11T07:27:41.708Z,100230.97
2023-05-11T07:30:10.772Z,100224.84
2023-05-11T07:32:38.850Z,100228.06
2023-05-11T07:35:07.914Z,100232.94
2023-05-11T07:37:35.792Z,100235.59
2023-05-11T07:40:04.693Z,100231.75
2023-05-11T07:42:34.008Z,100227.38
2023-05-11T07:45:01.916Z,100224.59
2023-05-11T07:47:29.890Z,100223.03
2023-05-11T07:49:57.822Z,100231.41
2023-05-11T07:52:25.887Z,100219.84
2023-05-11T07:54:53.834Z,100224.00
2023-05-11T07:57:21.890Z,100218.41
2023-05-11T07:59:51.321Z,100219.34
2023-05-11T08:02:19.985Z,100227.72
2023-05-11T08:04:48.043Z,100184.31
2023-05-11T08:07:16.064Z,100222.59
2023-05-11T08:09:44.422Z,100229.94
2023-05-11T08:12:12.423Z,100225.41
2023-05-11T08:14:40.380Z,100223.63
2023-05-11T08:17:09.694Z,100225.31
2023-05-11T08:19:37.763Z,100221.97
2023-05-11T08:22:06.206Z,100228.53
2023-05-11T08:24:34.054Z,100231.53
2023-05-11T08:27:02.829Z,100220.69
2023-05-11T08:29:30.779Z,100228.69
2023-05-11T08:31:59.163Z,100214.59
2023-05-11T08:34:28.783Z,100228.78
2023-05-11T08:36:56.755Z,100226.63
2023-05-11T08:39:45.434Z,100230.59
2023-05-11T08:42:15.062Z,100221.25
2023-05-11T08:44:44.568Z,100225.44
2023-05-11T08:49:46.049Z,100223.41
2023-05-11T08:52:15.447Z,100223.53
2023-05-11T08:54:43.332Z,100220.75
2023-05-11T08:57:12.157Z,100222.44
2023-05-11T08:59:42.183Z,100190.13
2023-05-11T09:02:14.470Z,100218.75
2023-05-11T09:04:44.164Z,100225.97
2023-05-11T09:07:16.517Z,100215.09
2023-05-11T09:09:44.455Z,100210.72
2023-05-11T09:12:13.411Z,100211.38
2023-05-11T09:14:41.504Z,100206.78
2023-05-11T09:17:09.789Z,100213.34
2023-05-11T09:19:37.797Z,100204.75
2023-05-11T09:22:06.961Z,100203.72
2023-05-11T09:24:36.694Z,100185.16
2023-05-11T09:27:09.259Z,100194.66
2023-05-11T09:29:37.484Z,100189.19
2023-05-11T09:32:06.229Z,100191.34
2023-05-11T09:34:34.224Z,100188.19
2023-05-11T09:37:02.356Z,100178.41
2023-05-11T09:39:38.097Z,100170.28
2023-05-11T09:42:18.209Z,100167.31
2023-05-11T09:44:47.353Z,100173.94
2023-05-11T09:47:17.608Z,100173.13
2023-05-11T09:49:47.781Z,100170.69
2023-05-11T09:52:17.529Z,100161.91
2023-05-11T09:54:47.794Z,100158.91
2023-05-11T09:57:27.855Z,100152.94
2023-05-11T09:59:56.928Z,100163.47
2023-05-11T10:02:26.473Z,100159.34
2023-05-11T10:04:55.611Z,100165.81
2023-05-11T10:07:31.451Z,100165.50
2023-05-11T10:10:01.721Z,100166.69
2023-05-11T10:12:33.472Z,100160.72
2023-05-11T10:15:04.359Z,100164.03
2023-05-11T10:17:33.142Z,100150.75
2023-05-11T10:20:04.295Z,100154.78
2023-05-11T10:22:32.921Z,100145.31
2023-05-11T10:25:01.603Z,100136.19
2023-05-11T10:27:32.903Z,100147.03
2023-05-11T10:30:01.817Z,100149.03
2023-05-11T10:32:30.789Z,100140.84
2023-05-11T10:34:59.377Z,100137.41
2023-05-11T10:37:28.552Z,100137.59
2023-05-11T10:39:58.284Z,100129.25
2023-05-11T10:42:42.621Z,100146.97
2023-05-11T10:45:22.633Z,100143.13
2023-05-11T10:48:10.854Z,100140.63
2023-05-11T10:50:54.281Z,100140.22
2023-05-11T10:53:44.144Z,100127.03
2023-05-11T10:56:27.421Z,100127.06
2023-05-11T10:59:22.454Z,100122.72
2023-05-11T11:01:52.286Z,100128.00
2023-05-11T11:04:20.594Z,100120.94
2023-05-11T11:06:48.685Z,100128.16
2023-05-11T11:09:17.663Z,100129.28
2023-05-11T11:11:47.302Z,100120.66
2023-05-11T11:14:17.922Z,100115.16
2023-05-11T11:17:24.378Z,100116.94
2023-05-11T11:19:52.418Z,100113.31
2023-05-11T11:22:47.417Z,100110.47
2023-05-11T11:25:17.614Z,100068.16
2023-05-11T11:27:59.825Z,100101.19
2023-05-11T11:30:30.790Z,100096.78
2023-05-11T11:33:33.164Z,100097.63
2023-05-11T11:36:01.133Z,100082.81
2023-05-11T11:38:29.729Z,100083.69
2023-05-11T11:40:57.893Z,100088.94
2023-05-11T11:43:27.575Z,100078.19
2023-05-11T11:45:58.440Z,100085.25
2023-05-11T11:48:35.677Z,100085.38
2023-05-11T11:51:05.958Z,100076.75
2023-05-11T11:54:07.412Z,100067.47
2023-05-11T11:56:41.746Z,100070.13
2023-05-11T11:59:14.195Z,100056.97
2023-05-11T12:01:45.179Z,100064.28
2023-05-11T12:04:44.501Z,100062.72
2023-05-11T12:07:14.528Z,100061.34
2023-05-11T12:09:42.529Z,100050.09
2023-05-11T12:12:11.340Z,100061.59
2023-05-11T12:14:40.813Z,100052.16
2023-05-11T12:17:15.386Z,100055.88
2023-05-11T12:19:44.878Z,100041.03
2023-05-11T12:22:14.881Z,100042.66
2023-05-11T12:24:44.094Z,100034.56
2023-05-11T12:27:12.110Z,100033.97
2023-05-11T12:29:41.390Z,100034.03
2023-05-11T12:32:14.492Z,100029.59
2023-05-11T12:34:42.490Z,100022.72
2023-05-11T12:37:10.612Z,100022.72
2023-05-11T12:39:39.665Z,100022.03
2023-05-11T12:42:07.776Z,100006.50
2023-05-11T12:44:36.406Z,100021.88
2023-05-11T12:47:05.009Z,100021.38
2023-05-11T12:49:34.460Z,100008.16
2023-05-11T12:52:08.023Z,99995.84
2023-05-11T12:54:38.835Z,99993.75
2023-05-11T12:57:08.022Z,99998.66
2023-05-11T12:59:38.942Z,99988.34
2023-05-11T13:02:12.498Z,99989.22
2023-05-11T13:04:43.612Z,99987.09
2023-05-11T13:07:13.167Z,99986.66
2023-05-11T13:09:41.552Z,99988.66
2023-05-11T13:12:11.360Z,99981.59
2023-05-11T13:14:39.458Z,99977.47
2023-05-11T13:17:07.544Z,99981.53
2023-05-11T13:19:37.493Z,99981.78
2023-05-11T13:22:08.364Z,99967.69
2023-05-11T13:24:36.359Z,99976.88
2023-05-11T13:27:04.262Z,99978.50
2023-05-11T13:29:32.201Z,99962.91
2023-05-11T13:32:00.291Z,99977.31
2023-05-11T13:34:28.274Z,99981.38
2023-05-11T13:36:56.210Z,99966.53
2023-05-11T13:39:25.566Z,99960.16
2023-05-11T13:41:55.597Z,99954.41
2023-05-11T13:44:24.051Z,99958.22
2023-05-11T13:46:51.989Z,99963.66
2023-05-11T13:49:19.918Z,99958.34
2023-05-11T13:51:47.747Z,99967.09
2023-05-11T13:54:15.794Z,99973.88
2023-05-11T13:56:45.089Z,99965.44
2023-05-11T13:59:12.981Z,99964.56
2023-05-11T14:01:40.985Z,99968.66
2023-05-11T14:04:08.933Z,99963.22
2023-05-11T14:06:37.035Z,99957.53
2023-05-11T14:09:05.322Z,99962.00
2023-05-11T14:11:33.270Z,99952.53
2023-05-11T14:14:03.082Z,99956.13
2023-05-11T14:16:31.157Z,99957.78
2023-05-11T14:18:59.145Z,99964.63
2023-05-11T14:21:27.128Z,99954.16
2023-05-11T14:24:10.007Z,99959.16
2023-05-11T14:26:39.372Z,99953.06
2023-05-11T14:29:08.948Z,99960.28
2023-05-11T14:31:37.876Z,99958.91
2023-05-11T14:34:06.268Z,99962.16
2023-05-11T14:36:34.388Z,99954.63
2023-05-11T14:39:02.754Z,99959.59
2023-05-11T14:41:31.165Z,99956.50
2023-05-11T14:43:59.100Z,99957.50
2023-05-11T14:46:28.864Z,99964.34
2023-05-11T14:48:56.896Z,99963.31
2023-05-11T14:51:25.122Z,99961.31
2023-05-11T14:53:53.104Z,99961.84
2023-05-11T14:56:22.107Z,99962.47
2023-05-11T14:58:50.151Z,99951.91
2023-05-11T15:01:18.108Z,99961.66
2023-05-11T15:03:47.568Z,99959.53
2023-05-11T15:06:21.184Z,99957.94
2023-05-11T15:08:49.737Z,99953.75
2023-05-11T15:11:17.708Z,99961.19
2023-05-11T15:13:47.410Z,99949.94
2023-05-11T15:16:15.990Z,99949.56
2023-05-11T15:18:43.951Z,99955.81
2023-05-11T15:21:13.227Z,99934.13
2023-05-11T15:23:41.175Z,99941.13
2023-05-11T15:26:09.069Z,99938.09
2023-05-11T15:28:37.043Z,99944.00
2023-05-11T15:31:05.273Z,99950.94
2023-05-11T15:33:33.500Z,99942.72
2023-05-11T15:36:01.441Z,99942.94
2023-05-11T15:38:31.155Z,99941.78
2023-05-11T15:40:59.221Z,99934.66
2023-05-11T15:43:27.130Z,99942.78
2023-05-11T15:45:55.428Z,99942.63
2023-05-11T15:48:23.489Z,99942.41
2023-05-11T15:50:51.383Z,99930.50
2023-05-11T15:53:19.422Z,99947.47
2023-05-11T15:55:51.022Z,99938.34
2023-05-11T15:58:19.074Z,99942.09
2023-05-11T16:00:47.176Z,99940.00
2023-05-11T16:03:15.408Z,99944.34
2023-05-11T16:05:43.421Z,99942.31
2023-05-11T16:08:11.396Z,99943.59
2023-05-11T16:10:39.425Z,99942.16
2023-05-11T16:13:09.081Z,99942.66
2023-05-11T16:15:36.986Z,99946.59
2023-05-11T16:18:05.722Z,99943.13
2023-05-11T16:20:33.741Z,99945.00
2023-05-11T16:23:01.776Z,99946.00
2023-05-11T16:25:30.300Z,99950.41
2023-05-11T16:27:58.215Z,99948.06
2023-05-11T16:30:27.851Z,99947.22
2023-05-11T16:32:55.889Z,99948.59
2023-05-11T16:35:23.953Z,99947.00
2023-05-11T16:37:52.528Z,99960.31
2023-05-11T16:40:21.389Z,99955.03
2023-05-11T16:42:49.780Z,99965.00
2023-05-11T16:45:17.910Z,99968.41
2023-05-11T16:47:47.392Z,99970.88
2023-05-11T16:50:16.416Z,99963.66
2023-05-11T16:52:45.243Z,99968.69
2023-05-11T16:55:13.267Z,99965.88
2023-05-11T16:57:41.486Z,99976.72
2023-05-11T17:00:10.214Z,99982.69
2023-05-11T17:02:38.387Z,99961.53
2023-05-11T17:05:08.889Z,99988.13
2023-05-11T17:07:36.905Z,99982.47
2023-05-11T17:10:05.556Z,99992.91
2023-05-11T17:12:35.664Z,99989.41
2023-05-11T17:15:03.736Z,99995.53
2023-05-11T17:17:31.802Z,99999.84
2023-05-11T17:20:01.320Z,100001.22
2023-05-11T17:22:30.679Z,100002.59
2023-05-11T17:24:58.717Z,100004.69
2023-05-11T17:27:26.630Z,100005.22
2023-05-11T17:29:54.576Z,100012.16
2023-05-11T17:32:23.305Z,100006.06
2023-05-11T17:34:51.485Z,100008.59
2023-05-11T17:37:31.353Z,100010.38
2023-05-11T17:40:02.564Z,100006.63
2023-05-11T17:42:30.912Z,100018.53
2023-05-11T17:44:58.964Z,100014.47
2023-05-11T17:47:27.295Z,100016.53
2023-05-11T17:49:55.300Z,100015.06
2023-05-11T17:52:24.656Z,100018.78
2023-05-11T17:54:52.949Z,100019.03
2023-05-11T17:57:23.673Z,100035.28
2023-05-11T17:59:51.799Z,100033.72
2023-05-11T18:02:19.992Z,100033.53
2023-05-11T18:04:48.324Z,100008.41
2023-05-11T18:07:16.297Z,100031.56
2023-05-11T18:09:44.172Z,100041.16
2023-05-11T18:12:12.720Z,100042.78
2023-05-11T18:14:42.747Z,100050.56
2023-05-11T18:17:10.771Z,100048.41
2023-05-11T18:19:38.765Z,100062.81
2023-05-11T18:22:06.881Z,100065.16
2023-05-11T18:24:34.840Z,100062.03
2023-05-11T18:27:02.768Z,100056.78
2023-05-11T18:29:30.751Z,100069.53
2023-05-11T18:32:00.169Z,100072.06
2023-05-11T18:34:28.195Z,100070.94
2023-05-11T18:36:56.168Z,100072.44
2023-05-11T18:39:24.259Z,100081.09
2023-05-11T18:41:52.268Z,100084.88
2023-05-11T18:44:20.223Z,100089.53
2023-05-11T18:46:48.302Z,100088.03
2023-05-11T18:49:17.691Z,100094.47
2023-05-11T18:51:45.688Z,100102.34
2023-05-11T18:54:13.698Z,100105.47
2023-05-11T18:56:41.647Z,100099.38
2023-05-11T18:59:09.596Z,100111.22
2023-05-11T19:01:47.202Z,100106.59
2023-05-11T19:04:19.916Z,100110.44
2023-05-11T19:06:48.236Z,100115.09
2023-05-11T19:09:16.267Z,100114.50
2023-05-11T19:11:44.303Z,100120.81
2023-05-11T19:14:14.702Z,100123.69
2023-05-11T19:16:42.963Z,100125.81
2023-05-11T19:19:11.401Z,100133.72
2023-05-11T19:21:42.537Z,100133.72
2023-05-11T19:24:11.200Z,100129.81
2023-05-11T19:26:39.781Z,100131.38
2023-05-11T19:29:09.301Z,100098.16
2023-05-11T19:31:37.345Z,100135.91
2023-05-11T19:34:06.872Z,100146.16
2023-05-11T19:36:34.878Z,100139.13
2023-05-11T19:39:04.925Z,100139.50
2023-05-11T19:41:33.259Z,100098.38
2023-05-11T19:44:01.702Z,100145.22
2023-05-11T19:46:29.710Z,100146.41
2023-05-11T19:48:57.762Z,100139.28
2023-05-11T19:51:25.726Z,100149.50
2023-05-11T19:53:54.854Z,100143.66
2023-05-11T19:56:24.190Z,100145.44
2023-05-11T19:58:52.153Z,100148.53
2023-05-11T20:01:20.074Z,100153.38
2023-05-11T20:03:48.216Z,100156.22
2023-05-11T20:06:16.205Z,100155.84
2023-05-11T20:08:45.835Z,100163.84
2023-05-11T20:11:15.163Z,100164.41
2023-05-11T20:13:45.533Z,100158.78
2023-05-11T20:16:13.589Z,100166.31
2023-05-11T20:18:41.637Z,100158.44
2023-05-11T20:21:09.639Z,100156.06
2023-05-11T20:23:39.298Z,100160.22
2023-05-11T20:26:07.321Z,100158.03
2023-05-11T20:28:35.294Z,100154.41
2023-05-11T20:31:04.965Z,100152.03
2023-05-11T20:36:03.915Z,100155.34
2023-05-11T20:38:31.922Z,100152.63
2023-05-11T20:40:59.993Z,100156.19
2023-05-11T20:43:28.024Z,100161.41
2023-05-11T20:45:56.033Z,100157.44
2023-05-11T20:48:36.288Z,100170.72
2023-05-11T20:51:08.376Z,100164.50
2023-05-11T20:53:36.469Z,100159.00
2023-05-11T20:56:04.585Z,100159.66
2023-05-11T20:58:32.681Z,100154.50
2023-05-11T21:01:01.062Z,100160.44
2023-05-11T21:03:30.546Z,100150.59
2023-05-11T21:05:58.713Z,100157.09
2023-05-11T21:08:26.796Z,100165.91
2023-05-11T21:10:54.704Z,100163.16
2023-05-11T21:13:22.587Z,100158.59
2023-05-11T21:15:50.707Z,100163.72
2023-05-11T21:18:18.927Z,100165.66
2023-05-11T21:20:48.258Z,100165.66
2023-05-11T21:23:16.226Z,100168.28
2023-05-11T21:25:44.164Z,100163.50
2023-05-11T21:28:12.140Z,100160.25
2023-05-11T21:30:40.060Z,100164.72
2023-05-11T21:33:08.116Z,100157.41
2023-05-11T21:35:36.267Z,100158.31
2023-05-11T21:38:05.807Z,100159.94
2023-05-11T21:40:33.980Z,100168.53
2023-05-11T21:43:01.883Z,100171.25
2023-05-11T21:45:29.834Z,100174.78
2023-05-11T21:47:58.759Z,100170.47
2023-05-11T21:50:26.747Z,100174.84
2023-05-11T21:52:54.795Z,100172.00
2023-05-11T21:55:24.345Z,100155.66
2023-05-11T21:57:52.746Z,100169.63
2023-05-11T22:00:22.686Z,100167.31
2023-05-11T22:02:51.497Z,100148.09
2023-05-11T22:05:19.558Z,100164.69
2023-05-11T22:07:47.507Z,100164.75
2023-05-11T22:10:15.557Z,100171.63
2023-05-11T22:12:44.984Z,100170.06
2023-05-11T22:15:13.372Z,100168.88
2023-05-11T22:17:41.317Z,100168.53
2023-05-11T22:20:11.083Z,100164.47
2023-05-11T22:22:39.322Z,100164.16
2023-05-11T22:25:09.027Z,100166.47
2023-05-11T22:27:37.262Z,100163.75
2023-05-11T22:30:08.920Z,100168.66
2023-05-11T22:32:37.318Z,100145.06
2023-05-11T22:35:06.053Z,100170.34
2023-05-11T22:37:34.030Z,100160.44
2023-05-11T22:40:02.149Z,100158.63
2023-05-11T22:42:30.892Z,100156.00
2023-05-11T22:44:58.968Z,100164.69
2023-05-11T22:47:28.263Z,100169.31
2023-05-11T22:49:56.471Z,100162.78
2023-05-11T22:52:24.537Z,100140.88
2023-05-11T22:54:55.155Z,100153.09
2023-05-11T22:57:24.187Z,100161.03
2023-05-11T22:59:52.215Z,100158.03
2023-05-11T23:02:20.356Z,100154.38
2023-05-11T23:04:52.370Z,100127.03
2023-05-11T23:07:20.870Z,100157.63
2023-05-11T23:09:49.828Z,100158.28
2023-05-11T23:12:18.570Z,100159.50
2023-05-11T23:14:46.566Z,100150.81
2023-05-11T23:17:14.609Z,100155.03
2023-05-11T23:19:43.270Z,100148.13
2023-05-11T23:22:12.638Z,100153.06
2023-05-11T23:24:40.562Z,100152.00
2023-05-11T23:27:08.657Z,100156.50
2023-05-11T23:29:37.165Z,100152.34
2023-05-11T23:32:05.199Z,100149.59
2023-05-11T23:34:33.169Z,100144.78
2023-05-11T23:37:01.482Z,100155.97
2023-05-11T23:39:30.832Z,100152.72
2023-05-11T23:41:58.796Z,100165.69
2023-05-11T23:44:27.655Z,100155.44
2023-05-11T23:46:55.661Z,100163.56
2023-05-11T23:49:23.646Z,100158.66
2023-05-11T23:51:51.589Z,100161.19
2023-05-11T23:54:19.497Z,100162.84
2023-05-11T23:56:48.818Z,100156.25
2023-05-11T23:59:16.747Z,100140.50
